sensor_id;sensor_type;location;lat;lon;timestamp;pressure;altitude;pressure_sealevel;temperature;humidity
74675;BME280;63200;48.810;12.352;2023-08-24T00:01:09;97706.19;;;16.61;100.00
74675;BME280;63200;48.810;12.352;2023-08-24T00:03:37;97703.91;;;16.55;100.00
74675;BME280;63200;48.810;12.352;2023-08-24T00:06:02;97671.31;;;16.36;100.00
74675;BME280;63200;48.810;12.352;2023-08-24T00:08:28;97691.97;;;16.51;100.00
74675;BME280;63200;48.810;12.352;2023-08-24T00:10:53;97696.00;;;16.53;100.00
74675;BME280;63200;48.810;12.352;2023-08-24T00:13:19;97675.16;;;16.35;100.00
74675;BME280;63200;48.810;12.352;2023-08-24T00:15:45;97692.28;;;16.49;100.00
74675;BME280;63200;48.810;12.352;2023-08-24T00:18:10;97643.19;;;16.12;100.00
74675;BME280;63200;48.810;12.352;2023-08-24T00:20:36;97692.56;;;16.39;100.00
74675;BME280;63200;48.810;12.352;2023-08-24T00:23:02;97688.91;;;16.43;100.00
74675;BME280;63200;48.810;12.352;2023-08-24T00:25:28;97690.19;;;16.46;100.00
74675;BME280;63200;48.810;12.352;2023-08-24T00:27:53;97697.28;;;16.47;100.00
74675;BME280;63200;48.810;12.352;2023-08-24T00:30:19;97667.38;;;16.19;100.00
74675;BME280;63200;48.810;12.352;2023-08-24T00:32:44;97700.31;;;16.37;100.00
74675;BME280;63200;48.810;12.352;2023-08-24T00:35:10;97690.16;;;16.37;100.00
74675;BME280;63200;48.810;12.352;2023-08-24T00:37:36;97651.06;;;16.14;100.00
74675;BME280;63200;48.810;12.352;2023-08-24T00:40:04;97695.31;;;16.39;100.00
74675;BME280;63200;48.810;12.352;2023-08-24T00:42:44;97659.34;;;16.23;100.00
74675;BME280;63200;48.810;12.352;2023-08-24T00:45:12;97693.75;;;16.46;100.00
74675;BME280;63200;48.810;12.352;2023-08-24T00:47:39;97693.22;;;16.44;100.00
74675;BME280;63200;48.810;12.352;2023-08-24T00:50:06;97693.41;;;16.39;100.00
74675;BME280;63200;48.810;12.352;2023-08-24T00:52:32;97693.03;;;16.32;100.00
74675;BME280;63200;48.810;12.352;2023-08-24T00:54:59;97667.03;;;16.12;100.00
74675;BME280;63200;48.810;12.352;2023-08-24T00:57:26;97687.22;;;16.25;100.00
74675;BME280;63200;48.810;12.352;2023-08-24T00:59:52;97696.06;;;16.22;100.00
74675;BME280;63200;48.810;12.352;2023-08-24T01:02:17;97694.28;;;16.17;100.00
74675;BME280;63200;48.810;12.352;2023-08-24T01:04:42;97675.03;;;15.99;100.00
74675;BME280;63200;48.810;12.352;2023-08-24T01:07:08;97686.66;;;16.05;100.00
74675;BME280;63200;48.810;12.352;2023-08-24T01:09:34;97689.53;;;16.00;100.00
74675;BME280;63200;48.810;12.352;2023-08-24T01:12:06;97688.88;;;15.94;100.00
74675;BME280;63200;48.810;12.352;2023-08-24T01:14:59;97691.75;;;15.89;100.00
74675;BME280;63200;48.810;12.352;2023-08-24T01:17:30;97680.97;;;15.70;100.00
74675;BME280;63200;48.810;12.352;2023-08-24T01:19:58;97691.38;;;15.82;100.00
74675;BME280;63200;48.810;12.352;2023-08-24T01:25:09;97693.31;;;15.81;100.00
74675;BME280;63200;48.810;12.352;2023-08-24T01:27:36;97693.91;;;15.78;100.00
74675;BME280;63200;48.810;12.352;2023-08-24T01:30:03;97684.84;;;15.69;100.00
74675;BME280;63200;48.810;12.352;2023-08-24T01:32:38;97688.19;;;15.66;100.00
74675;BME280;63200;48.810;12.352;2023-08-24T01:35:06;97685.44;;;15.66;100.00
74675;BME280;63200;48.810;12.352;2023-08-24T01:37:32;97681.06;;;15.56;100.00
74675;BME280;63200;48.810;12.352;2023-08-24T01:40:06;97687.50;;;15.60;100.00
74675;BME280;63200;48.810;12.352;2023-08-24T01:42:45;97685.88;;;15.59;100.00
74675;BME280;63200;48.810;12.352;2023-08-24T01:45:16;97591.38;;;14.99;100.00
74675;BME280;63200;48.810;12.352;2023-08-24T01:47:44;97684.09;;;15.55;100.00
74675;BME280;63200;48.810;12.352;2023-08-24T01:50:10;97685.03;;;15.50;100.00
74675;BME280;63200;48.810;12.352;2023-08-24T01:52:36;97682.59;;;15.48;100.00
74675;BME280;63200;48.810;12.352;2023-08-24T01:55:01;97676.78;;;15.41;100.00
74675;BME280;63200;48.810;12.352;2023-08-24T01:57:26;97675.28;;;15.35;100.00
74675;BME280;63200;48.810;12.352;2023-08-24T01:59:52;97668.50;;;15.32;100.00
74675;BME280;63200;48.810;12.352;2023-08-24T02:02:17;97677.19;;;15.35;100.00
74675;BME280;63200;48.810;12.352;2023-08-24T02:04:42;97620.19;;;15.05;100.00
74675;BME280;63200;48.810;12.352;2023-08-24T02:07:08;97673.41;;;15.44;100.00
74675;BME280;63200;48.810;12.352;2023-08-24T02:09:33;97671.16;;;15.46;100.00
74675;BME280;63200;48.810;12.352;2023-08-24T02:11:58;97662.66;;;15.48;100.00
74675;BME280;63200;48.810;12.352;2023-08-24T02:14:24;97664.75;;;15.51;100.00
74675;BME280;63200;48.810;12.352;2023-08-24T02:16:49;97620.19;;;15.28;100.00
74675;BME280;63200;48.810;12.352;2023-08-24T02:19:14;97656.75;;;15.55;100.00
74675;BME280;63200;48.810;12.352;2023-08-24T02:21:40;97653.50;;;15.53;100.00
74675;BME280;63200;48.810;12.352;2023-08-24T02:24:06;97647.97;;;15.44;100.00
74675;BME280;63200;48.810;12.352;2023-08-24T02:26:31;97650.53;;;15.40;100.00
74675;BME280;63200;48.810;12.352;2023-08-24T02:28:57;97612.50;;;15.07;100.00
74675;BME280;63200;48.810;12.352;2023-08-24T02:31:22;97653.81;;;15.28;100.00
74675;BME280;63200;48.810;12.352;2023-08-24T02:33:48;97657.00;;;15.22;100.00
74675;BME280;63200;48.810;12.352;2023-08-24T02:36:14;97664.25;;;15.26;100.00
74675;BME280;63200;48.810;12.352;2023-08-24T02:38:39;97652.88;;;15.33;100.00
74675;BME280;63200;48.810;12.352;2023-08-24T02:41:06;97654.88;;;15.41;100.00
74675;BME280;63200;48.810;12.352;2023-08-24T02:43:32;97654.25;;;15.44;100.00
74675;BME280;63200;48.810;12.352;2023-08-24T02:46:06;97651.72;;;15.48;100.00
74675;BME280;63200;48.810;12.352;2023-08-24T02:48:32;97645.84;;;15.41;100.00
74675;BME280;63200;48.810;12.352;2023-08-24T02:50:58;97604.09;;;15.04;100.00
74675;BME280;63200;48.810;12.352;2023-08-24T02:53:24;97644.13;;;15.22;100.00
74675;BME280;63200;48.810;12.352;2023-08-24T02:55:51;97642.63;;;15.16;100.00
74675;BME280;63200;48.810;12.352;2023-08-24T02:58:16;97636.59;;;15.05;100.00
74675;BME280;63200;48.810;12.352;2023-08-24T03:00:42;97652.31;;;14.99;100.00
74675;BME280;63200;48.810;12.352;2023-08-24T03:03:07;97640.72;;;14.94;100.00
74675;BME280;63200;48.810;12.352;2023-08-24T03:05:32;97649.34;;;14.87;100.00
74675;BME280;63200;48.810;12.352;2023-08-24T03:07:58;97636.09;;;14.80;100.00
74675;BME280;63200;48.810;12.352;2023-08-24T03:10:24;97645.81;;;14.73;100.00
74675;BME280;63200;48.810;12.352;2023-08-24T03:12:49;97644.19;;;14.72;100.00
74675;BME280;63200;48.810;12.352;2023-08-24T03:15:15;97657.25;;;14.75;100.00
74675;BME280;63200;48.810;12.352;2023-08-24T03:17:41;97651.28;;;14.73;100.00
74675;BME280;63200;48.810;12.352;2023-08-24T03:20:07;97646.31;;;14.75;100.00
74675;BME280;63200;48.810;12.352;2023-08-24T03:22:32;97648.56;;;14.73;100.00
74675;BME280;63200;48.810;12.352;2023-08-24T03:24:57;97649.66;;;14.72;100.00
74675;BME280;63200;48.810;12.352;2023-08-24T03:27:23;97653.81;;;14.69;100.00
74675;BME280;63200;48.810;12.352;2023-08-24T03:29:48;97646.41;;;14.70;100.00
74675;BME280;63200;48.810;12.352;2023-08-24T03:32:14;97652.50;;;14.66;100.00
74675;BME280;63200;48.810;12.352;2023-08-24T03:34:39;97653.41;;;14.62;100.00
74675;BME280;63200;48.810;12.352;2023-08-24T03:37:05;97649.38;;;14.59;100.00
74675;BME280;63200;48.810;12.352;2023-08-24T03:39:30;97656.25;;;14.57;100.00
74675;BME280;63200;48.810;12.352;2023-08-24T03:41:56;97651.38;;;14.54;100.00
74675;BME280;63200;48.810;12.352;2023-08-24T03:44:21;97647.53;;;14.55;100.00
74675;BME280;63200;48.810;12.352;2023-08-24T03:46:47;97649.16;;;14.56;100.00
74675;BME280;63200;48.810;12.352;2023-08-24T03:49:12;97642.28;;;14.58;100.00
74675;BME280;63200;48.810;12.352;2023-08-24T03:51:37;97643.91;;;14.59;100.00
74675;BME280;63200;48.810;12.352;2023-08-24T03:54:03;97643.19;;;14.54;100.00
74675;BME280;63200;48.810;12.352;2023-08-24T03:56:30;97644.50;;;14.56;100.00
74675;BME280;63200;48.810;12.352;2023-08-24T03:58:55;97655.44;;;14.56;100.00
74675;BME280;63200;48.810;12.352;2023-08-24T04:01:21;97649.16;;;14.56;100.00
74675;BME280;63200;48.810;12.352;2023-08-24T04:03:47;97646.91;;;14.58;100.00
74675;BME280;63200;48.810;12.352;2023-08-24T04:06:12;97654.53;;;14.61;100.00
74675;BME280;63200;48.810;12.352;2023-08-24T04:08:38;97648.22;;;14.60;100.00
74675;BME280;63200;48.810;12.352;2023-08-24T04:11:03;97664.94;;;14.59;100.00
74675;BME280;63200;48.810;12.352;2023-08-24T04:13:29;97663.84;;;14.60;100.00
74675;BME280;63200;48.810;12.352;2023-08-24T04:15:54;97660.19;;;14.64;100.00
74675;BME280;63200;48.810;12.352;2023-08-24T04:18:19;97665.06;;;14.68;100.00
74675;BME280;63200;48.810;12.352;2023-08-24T04:20:45;97661.22;;;14.69;100.00
74675;BME280;63200;48.810;12.352;2023-08-24T04:23:13;97661.81;;;14.65;100.00
74675;BME280;63200;48.810;12.352;2023-08-24T04:25:41;97662.50;;;14.57;100.00
74675;BME280;63200;48.810;12.352;2023-08-24T04:28:08;97672.03;;;14.60;100.00
74675;BME280;63200;48.810;12.352;2023-08-24T04:30:33;97668.66;;;14.63;100.00
74675;BME280;63200;48.810;12.352;2023-08-24T04:32:59;97659.41;;;14.64;100.00
74675;BME280;63200;48.810;12.352;2023-08-24T04:35:25;97679.22;;;14.70;100.00
74675;BME280;63200;48.810;12.352;2023-08-24T04:37:51;97673.63;;;14.75;100.00
74675;BME280;63200;48.810;12.352;2023-08-24T04:40:16;97672.63;;;14.85;100.00
74675;BME280;63200;48.810;12.352;2023-08-24T04:42:42;97685.34;;;14.89;100.00
74675;BME280;63200;48.810;12.352;2023-08-24T04:45:07;97618.28;;;14.55;100.00
74675;BME280;63200;48.810;12.352;2023-08-24T04:47:33;97683.69;;;15.02;100.00
74675;BME280;63200;48.810;12.352;2023-08-24T04:49:58;97681.66;;;15.08;100.00
74675;BME280;63200;48.810;12.352;2023-08-24T04:52:23;97681.22;;;15.14;100.00
74675;BME280;63200;48.810;12.352;2023-08-24T04:54:49;97658.78;;;15.04;100.00
74675;BME280;63200;48.810;12.352;2023-08-24T04:57:14;97682.81;;;15.29;100.00
74675;BME280;63200;48.810;12.352;2023-08-24T04:59:39;97683.47;;;15.35;100.00
74675;BME280;63200;48.810;12.352;2023-08-24T05:02:05;97674.03;;;15.41;100.00
74675;BME280;63200;48.810;12.352;2023-08-24T05:04:30;97666.81;;;15.45;100.00
74675;BME280;63200;48.810;12.352;2023-08-24T05:06:55;97674.75;;;15.56;100.00
74675;BME280;63200;48.810;12.352;2023-08-24T05:09:21;97672.88;;;15.65;100.00
74675;BME280;63200;48.810;12.352;2023-08-24T05:11:48;97670.47;;;15.63;100.00
74675;BME280;63200;48.810;12.352;2023-08-24T05:14:13;97673.03;;;15.82;100.00
74675;BME280;63200;48.810;12.352;2023-08-24T05:16:39;97667.91;;;15.90;100.00
74675;BME280;63200;48.810;12.352;2023-08-24T05:19:04;97666.97;;;15.94;100.00
74675;BME280;63200;48.810;12.352;2023-08-24T05:21:29;97680.19;;;16.01;100.00
74675;BME280;63200;48.810;12.352;2023-08-24T05:23:55;97680.53;;;16.08;100.00
74675;BME280;63200;48.810;12.352;2023-08-24T05:26:20;97675.91;;;16.18;100.00
74675;BME280;63200;48.810;12.352;2023-08-24T05:28:47;97681.28;;;16.31;100.00
74675;BME280;63200;48.810;12.352;2023-08-24T05:31:13;97679.06;;;16.42;100.00
74675;BME280;63200;48.810;12.352;2023-08-24T05:33:38;97676.50;;;16.55;100.00
74675;BME280;63200;48.810;12.352;2023-08-24T05:36:04;97639.06;;;16.41;100.00
74675;BME280;63200;48.810;12.352;2023-08-24T05:41:51;97671.94;;;16.99;100.00
74675;BME280;63200;48.810;12.352;2023-08-24T05:47:38;97657.09;;;17.18;100.00
74675;BME280;63200;48.810;12.352;2023-08-24T05:50:04;97672.09;;;17.46;100.00
74675;BME280;63200;48.810;12.352;2023-08-24T05:52:31;97668.47;;;17.72;100.00
74675;BME280;63200;48.810;12.352;2023-08-24T05:54:56;97658.25;;;17.90;100.00
74675;BME280;63200;48.810;12.352;2023-08-24T05:57:21;97652.03;;;18.11;100.00
74675;BME280;63200;48.810;12.352;2023-08-24T05:59:47;97651.22;;;18.19;100.00
74675;BME280;63200;48.810;12.352;2023-08-24T06:02:12;97642.88;;;18.37;100.00
74675;BME280;63200;48.810;12.352;2023-08-24T06:04:37;97643.44;;;18.51;100.00
74675;BME280;63200;48.810;12.352;2023-08-24T06:07:03;97639.84;;;18.59;100.00
74675;BME280;63200;48.810;12.352;2023-08-24T06:09:30;97641.06;;;18.71;100.00
74675;BME280;63200;48.810;12.352;2023-08-24T06:11:55;97655.69;;;18.84;100.00
74675;BME280;63200;48.810;12.352;2023-08-24T06:14:20;97662.69;;;19.02;100.00
74675;BME280;63200;48.810;12.352;2023-08-24T06:16:45;97664.63;;;19.23;100.00
74675;BME280;63200;48.810;12.352;2023-08-24T06:19:11;97665.28;;;19.41;100.00
74675;BME280;63200;48.810;12.352;2023-08-24T06:21:36;97652.66;;;19.40;100.00
74675;BME280;63200;48.810;12.352;2023-08-24T06:24:01;97677.75;;;19.59;100.00
74675;BME280;63200;48.810;12.352;2023-08-24T06:26:26;97674.38;;;19.54;100.00
74675;BME280;63200;48.810;12.352;2023-08-24T06:28:52;97657.47;;;19.43;100.00
74675;BME280;63200;48.810;12.352;2023-08-24T06:31:17;97662.38;;;19.58;100.00
74675;BME280;63200;48.810;12.352;2023-08-24T06:33:42;97651.72;;;19.69;100.00
74675;BME280;63200;48.810;12.352;2023-08-24T06:36:08;97650.81;;;19.77;100.00
74675;BME280;63200;48.810;12.352;2023-08-24T06:38:33;97629.06;;;19.97;100.00
74675;BME280;63200;48.810;12.352;2023-08-24T06:40:59;97656.66;;;20.34;100.00
74675;BME280;63200;48.810;12.352;2023-08-24T06:43:27;97664.69;;;20.64;100.00
74675;BME280;63200;48.810;12.352;2023-08-24T06:45:54;97668.59;;;20.88;100.00
74675;BME280;63200;48.810;12.352;2023-08-24T06:48:20;97671.63;;;21.11;100.00
74675;BME280;63200;48.810;12.352;2023-08-24T06:50:45;97663.16;;;21.32;97.42
74675;BME280;63200;48.810;12.352;2023-08-24T06:53:11;97668.78;;;21.64;95.96
74675;BME280;63200;48.810;12.352;2023-08-24T06:55:36;97676.34;;;21.95;93.08
74675;BME280;63200;48.810;12.352;2023-08-24T06:58:02;97679.50;;;22.42;90.69
74675;BME280;63200;48.810;12.352;2023-08-24T07:00:30;97650.16;;;22.37;82.47
74675;BME280;63200;48.810;12.352;2023-08-24T07:02:55;97666.66;;;22.50;81.45
74675;BME280;63200;48.810;12.352;2023-08-24T07:05:21;97631.31;;;22.43;80.48
74675;BME280;63200;48.810;12.352;2023-08-24T07:07:47;97668.63;;;22.85;79.43
74675;BME280;63200;48.810;12.352;2023-08-24T07:10:13;97666.63;;;23.01;73.80
74675;BME280;63200;48.810;12.352;2023-08-24T07:12:38;97661.50;;;23.19;72.29
74675;BME280;63200;48.810;12.352;2023-08-24T07:15:07;97658.38;;;23.40;70.15
74675;BME280;63200;48.810;12.352;2023-08-24T07:17:33;97660.47;;;23.27;69.16
74675;BME280;63200;48.810;12.352;2023-08-24T07:19:58;97662.34;;;23.43;69.73
74675;BME280;63200;48.810;12.352;2023-08-24T07:22:23;97669.78;;;23.58;69.89
74675;BME280;63200;48.810;12.352;2023-08-24T07:24:51;97663.53;;;23.85;69.06
74675;BME280;63200;48.810;12.352;2023-08-24T07:27:17;97615.84;;;23.75;67.12
74675;BME280;63200;48.810;12.352;2023-08-24T07:29:43;97657.66;;;24.33;65.99
74675;BME280;63200;48.810;12.352;2023-08-24T07:32:08;97658.50;;;24.37;64.72
74675;BME280;63200;48.810;12.352;2023-08-24T07:34:34;97623.66;;;24.39;65.48
74675;BME280;63200;48.810;12.352;2023-08-24T07:36:59;97651.47;;;24.66;63.40
74675;BME280;63200;48.810;12.352;2023-08-24T07:39:24;97658.31;;;25.03;63.37
74675;BME280;63200;48.810;12.352;2023-08-24T07:41:51;97635.94;;;25.22;63.96
74675;BME280;63200;48.810;12.352;2023-08-24T07:44:16;97642.81;;;25.66;62.99
74675;BME280;63200;48.810;12.352;2023-08-24T07:46:41;97629.47;;;25.83;60.99
74675;BME280;63200;48.810;12.352;2023-08-24T07:49:07;97628.75;;;25.89;60.22
74675;BME280;63200;48.810;12.352;2023-08-24T07:51:33;97628.03;;;26.00;59.46
74675;BME280;63200;48.810;12.352;2023-08-24T07:53:59;97631.41;;;26.16;59.84
74675;BME280;63200;48.810;12.352;2023-08-24T07:56:24;97626.09;;;26.52;59.62
74675;BME280;63200;48.810;12.352;2023-08-24T07:58:50;97630.09;;;26.55;58.20
74675;BME280;63200;48.810;12.352;2023-08-24T08:01:15;97620.81;;;27.03;58.39
74675;BME280;63200;48.810;12.352;2023-08-24T08:03:40;97616.56;;;27.34;58.32
74675;BME280;63200;48.810;12.352;2023-08-24T08:06:06;97607.91;;;27.61;57.31
74675;BME280;63200;48.810;12.352;2023-08-24T08:08:31;97605.94;;;27.80;55.26
74675;BME280;63200;48.810;12.352;2023-08-24T08:10:58;97600.66;;;27.35;55.42
74675;BME280;63200;48.810;12.352;2023-08-24T08:13:25;97583.06;;;27.13;58.53
74675;BME280;63200;48.810;12.352;2023-08-24T08:15:50;97574.06;;;27.70;56.37
74675;BME280;63200;48.810;12.352;2023-08-24T08:18:15;97538.19;;;27.75;54.60
74675;BME280;63200;48.810;12.352;2023-08-24T08:20:41;97572.91;;;28.36;53.57
74675;BME280;63200;48.810;12.352;2023-08-24T08:23:06;97580.34;;;29.00;51.55
74675;BME280;63200;48.810;12.352;2023-08-24T08:25:31;97582.53;;;29.45;49.48
74675;BME280;63200;48.810;12.352;2023-08-24T08:27:57;97596.75;;;28.84;50.23
74675;BME280;63200;48.810;12.352;2023-08-24T08:30:22;97598.84;;;28.15;49.62
74675;BME280;63200;48.810;12.352;2023-08-24T08:32:47;97608.72;;;27.58;51.94
74675;BME280;63200;48.810;12.352;2023-08-24T08:35:13;97601.19;;;27.84;50.98
74675;BME280;63200;48.810;12.352;2023-08-24T08:37:38;97594.38;;;28.64;49.12
74675;BME280;63200;48.810;12.352;2023-08-24T08:40:04;97590.28;;;29.12;47.30
74675;BME280;63200;48.810;12.352;2023-08-24T08:42:35;97598.69;;;29.79;46.70
74675;BME280;63200;48.810;12.352;2023-08-24T08:45:02;97569.72;;;30.07;44.71
74675;BME280;63200;48.810;12.352;2023-08-24T08:47:29;97594.75;;;30.25;44.07
74675;BME280;63200;48.810;12.352;2023-08-24T08:49:55;97573.41;;;30.39;43.62
74675;BME280;63200;48.810;12.352;2023-08-24T08:52:20;97595.94;;;30.73;41.67
74675;BME280;63200;48.810;12.352;2023-08-24T08:54:46;97574.25;;;31.16;42.08
74675;BME280;63200;48.810;12.352;2023-08-24T08:57:11;97597.75;;;31.84;41.50
74675;BME280;63200;48.810;12.352;2023-08-24T08:59:38;97599.00;;;31.52;39.50
74675;BME280;63200;48.810;12.352;2023-08-24T09:02:04;97602.03;;;31.34;40.37
74675;BME280;63200;48.810;12.352;2023-08-24T09:04:31;97605.16;;;31.39;39.93
74675;BME280;63200;48.810;12.352;2023-08-24T09:06:57;97600.44;;;31.33;39.98
74675;BME280;63200;48.810;12.352;2023-08-24T09:09:24;97599.19;;;31.06;40.74
74675;BME280;63200;48.810;12.352;2023-08-24T09:11:50;97607.00;;;31.22;41.73
74675;BME280;63200;48.810;12.352;2023-08-24T09:14:15;97578.53;;;31.82;42.00
74675;BME280;63200;48.810;12.352;2023-08-24T09:16:41;97603.88;;;32.02;40.31
74675;BME280;63200;48.810;12.352;2023-08-24T09:19:10;97568.34;;;31.92;40.16
74675;BME280;63200;48.810;12.352;2023-08-24T09:21:37;97600.94;;;32.10;40.01
74675;BME280;63200;48.810;12.352;2023-08-24T09:24:03;97596.19;;;32.06;39.82
74675;BME280;63200;48.810;12.352;2023-08-24T09:26:33;97601.06;;;32.30;38.93
74675;BME280;63200;48.810;12.352;2023-08-24T09:29:00;97586.00;;;32.40;39.38
74675;BME280;63200;48.810;12.352;2023-08-24T09:31:38;97587.91;;;32.47;38.47
74675;BME280;63200;48.810;12.352;2023-08-24T09:34:04;97586.41;;;32.15;38.19
74675;BME280;63200;48.810;12.352;2023-08-24T09:36:33;97581.16;;;32.20;38.84
74675;BME280;63200;48.810;12.352;2023-08-24T09:38:59;97578.59;;;32.02;38.40
74675;BME280;63200;48.810;12.352;2023-08-24T09:41:50;97570.59;;;32.01;38.44
74675;BME280;63200;48.810;12.352;2023-08-24T09:44:18;97551.19;;;32.10;38.96
74675;BME280;63200;48.810;12.352;2023-08-24T09:46:44;97574.94;;;32.53;38.24
74675;BME280;63200;48.810;12.352;2023-08-24T09:49:11;97567.34;;;32.74;38.25
74675;BME280;63200;48.810;12.352;2023-08-24T09:51:37;97579.41;;;33.14;38.65
74675;BME280;63200;48.810;12.352;2023-08-24T09:54:05;97564.47;;;33.17;38.49
74675;BME280;63200;48.810;12.352;2023-08-24T09:56:35;97575.09;;;32.22;39.87
74675;BME280;63200;48.810;12.352;2023-08-24T09:59:07;97568.63;;;31.98;40.51
74675;BME280;63200;48.810;12.352;2023-08-24T10:01:36;97565.31;;;32.30;40.78
74675;BME280;63200;48.810;12.352;2023-08-24T10:04:05;97562.50;;;32.30;40.23
74675;BME280;63200;48.810;12.352;2023-08-24T10:06:32;97552.88;;;32.31;40.66
74675;BME280;63200;48.810;12.352;2023-08-24T10:09:01;97546.69;;;32.84;40.82
74675;BME280;63200;48.810;12.352;2023-08-24T10:11:30;97533.25;;;32.71;39.83
74675;BME280;63200;48.810;12.352;2023-08-24T10:14:05;97517.00;;;32.39;39.97
74675;BME280;63200;48.810;12.352;2023-08-24T10:16:33;97507.84;;;32.35;40.43
74675;BME280;63200;48.810;12.352;2023-08-24T10:18:59;97499.94;;;32.50;40.23
74675;BME280;63200;48.810;12.352;2023-08-24T10:21:26;97489.19;;;32.85;39.73
74675;BME280;63200;48.810;12.352;2023-08-24T10:23:55;97498.78;;;32.67;39.51
74675;BME280;63200;48.810;12.352;2023-08-24T10:26:22;97509.91;;;32.75;40.09
74675;BME280;63200;48.810;12.352;2023-08-24T10:28:49;97501.50;;;32.75;39.13
74675;BME280;63200;48.810;12.352;2023-08-24T10:31:15;97506.78;;;32.69;39.53
74675;BME280;63200;48.810;12.352;2023-08-24T10:33:41;97504.72;;;32.73;39.32
74675;BME280;63200;48.810;12.352;2023-08-24T10:36:09;97492.28;;;33.11;38.64
74675;BME280;63200;48.810;12.352;2023-08-24T10:38:40;97496.56;;;33.15;37.78
74675;BME280;63200;48.810;12.352;2023-08-24T10:41:09;97501.38;;;32.98;38.32
74675;BME280;63200;48.810;12.352;2023-08-24T10:43:38;97501.47;;;32.95;38.08
74675;BME280;63200;48.810;12.352;2023-08-24T10:46:04;97459.00;;;32.89;38.37
74675;BME280;63200;48.810;12.352;2023-08-24T10:54:02;97475.66;;;33.53;37.54
74675;BME280;63200;48.810;12.352;2023-08-24T10:56:35;97475.28;;;33.51;37.14
74675;BME280;63200;48.810;12.352;2023-08-24T10:59:13;97477.84;;;33.78;37.81
74675;BME280;63200;48.810;12.352;2023-08-24T11:01:41;97463.53;;;34.35;37.12
74675;BME280;63200;48.810;12.352;2023-08-24T11:04:07;97464.91;;;34.27;36.30
74675;BME280;63200;48.810;12.352;2023-08-24T11:06:33;97456.66;;;34.36;36.70
74675;BME280;63200;48.810;12.352;2023-08-24T11:09:08;97455.69;;;34.26;36.04
74675;BME280;63200;48.810;12.352;2023-08-24T11:11:41;97446.44;;;34.26;37.37
74675;BME280;63200;48.810;12.352;2023-08-24T11:14:13;97438.53;;;34.50;36.96
74675;BME280;63200;48.810;12.352;2023-08-24T11:16:47;97436.81;;;34.40;36.47
74675;BME280;63200;48.810;12.352;2023-08-24T11:19:13;97444.13;;;34.08;37.41
74675;BME280;63200;48.810;12.352;2023-08-24T11:21:39;97427.50;;;34.56;36.87
74675;BME280;63200;48.810;12.352;2023-08-24T11:24:06;97434.50;;;34.51;37.37
74675;BME280;63200;48.810;12.352;2023-08-24T11:26:31;97427.13;;;34.83;36.46
74675;BME280;63200;48.810;12.352;2023-08-24T11:28:57;97422.06;;;34.91;36.46
74675;BME280;63200;48.810;12.352;2023-08-24T11:31:23;97411.22;;;35.28;35.83
74675;BME280;63200;48.810;12.352;2023-08-24T11:33:54;97414.59;;;35.10;35.56
74675;BME280;63200;48.810;12.352;2023-08-24T11:36:22;97414.28;;;34.95;35.45
74675;BME280;63200;48.810;12.352;2023-08-24T11:38:57;97403.19;;;34.87;36.43
74675;BME280;63200;48.810;12.352;2023-08-24T11:41:23;97397.44;;;35.30;37.37
74675;BME280;63200;48.810;12.352;2023-08-24T11:43:49;97398.25;;;35.30;35.44
74675;BME280;63200;48.810;12.352;2023-08-24T11:46:16;97397.00;;;35.31;36.80
74675;BME280;63200;48.810;12.352;2023-08-24T11:48:42;97376.81;;;35.46;35.90
74675;BME280;63200;48.810;12.352;2023-08-24T11:51:09;97387.28;;;35.32;35.91
74675;BME280;63200;48.810;12.352;2023-08-24T11:53:39;97381.75;;;35.29;36.13
74675;BME280;63200;48.810;12.352;2023-08-24T11:56:05;97394.88;;;35.35;35.79
74675;BME280;63200;48.810;12.352;2023-08-24T11:58:31;97376.16;;;35.64;36.09
74675;BME280;63200;48.810;12.352;2023-08-24T12:00:56;97360.94;;;35.61;35.34
74675;BME280;63200;48.810;12.352;2023-08-24T12:03:22;97382.19;;;35.53;35.16
74675;BME280;63200;48.810;12.352;2023-08-24T12:05:47;97379.75;;;35.03;35.41
74675;BME280;63200;48.810;12.352;2023-08-24T12:08:13;97378.50;;;35.43;34.99
74675;BME280;63200;48.810;12.352;2023-08-24T12:10:42;97354.78;;;35.41;35.40
74675;BME280;63200;48.810;12.352;2023-08-24T12:13:07;97381.63;;;35.32;34.45
74675;BME280;63200;48.810;12.352;2023-08-24T12:15:35;97360.66;;;35.20;35.28
74675;BME280;63200;48.810;12.352;2023-08-24T12:18:27;97375.38;;;35.63;35.29
74675;BME280;63200;48.810;12.352;2023-08-24T12:20:53;97377.91;;;35.48;34.45
74675;BME280;63200;48.810;12.352;2023-08-24T12:23:18;97379.00;;;35.64;35.06
74675;BME280;63200;48.810;12.352;2023-08-24T12:25:43;97371.84;;;35.72;34.82
74675;BME280;63200;48.810;12.352;2023-08-24T12:28:14;97365.03;;;35.82;34.64
74675;BME280;63200;48.810;12.352;2023-08-24T12:33:24;97357.47;;;35.92;34.42
74675;BME280;63200;48.810;12.352;2023-08-24T12:35:50;97348.81;;;35.74;34.67
74675;BME280;63200;48.810;12.352;2023-08-24T12:38:16;97331.63;;;35.33;34.59
74675;BME280;63200;48.810;12.352;2023-08-24T12:40:41;97339.09;;;35.40;34.01
74675;BME280;63200;48.810;12.352;2023-08-24T12:43:07;97352.41;;;35.26;34.33
74675;BME280;63200;48.810;12.352;2023-08-24T12:45:32;97349.59;;;35.26;35.16
74675;BME280;63200;48.810;12.352;2023-08-24T12:47:57;97350.63;;;35.07;34.47
74675;BME280;63200;48.810;12.352;2023-08-24T12:50:23;97346.69;;;34.91;35.44
74675;BME280;63200;48.810;12.352;2023-08-24T12:52:48;97343.31;;;34.96;35.93
74675;BME280;63200;48.810;12.352;2023-08-24T12:55:14;97344.44;;;35.12;35.87
74675;BME280;63200;48.810;12.352;2023-08-24T12:57:39;97348.72;;;35.03;37.04
74675;BME280;63200;48.810;12.352;2023-08-24T13:00:05;97330.13;;;34.93;36.63